Richmond, Vermont
Current Conditions -  °F | °C
As of 5:54 PM on Thursday 20 Nov 2014 (Local Time) from KBTV Reporting Station
Few Clouds Few Clouds  
Wind Chill: 19°   Ceiling: Unl
Heat Index: 30°   Visibility: 10mi
Dew Point: 12°   Wind: 16mph
Humidity: 47%   Direction: 270°W
Pressure: 29.81"   Gusts: 20mph
Location:  44.41°N, 72.99°W
Report Text: KBTV 202254Z 27014G17KT 10SM FEW045 FEW090 M01/M11 A2981 RMK AO2 SLP098 T10111111
Loading
Personal Weather Stations






























Interactive Weather Map New forecast layout! Learn more

10-Day Weather Forecast

Advertisements
Track Severe Weather on mobile